Platte River (Nebraska), North Bend (06796000)

StateNebraskaLatestUnknown (1760 cfs)
RiverPlatte RiverRatingObservedEstimated
Updated2026-05-10 7:15 (1 hour ago)Flood - The river is flooding. Obstacles can be treacherous or deadly. The river should be avoided at this stage for casual trips and definitely for the inexperienced. Trips should be attempted only with protective gear and equipment.Flood(none)(none)
Discharge1760 cfs (median: 4890 cfs)High - The river is high and potentially dangerous, especially for the young and / or inexperienced. Normal stream obstacles are sometimes difficult to navigate. Extended distances can be attempted, but canoe travel may not be advisable.High(none)(none)
Height2.81 feetGood - Conditions are ideal for a canoe or kayak. Boats typically will drag on fewer than one-quarter of riffles, if at all, and portages are unnecessary or rare. Normal float lengths can be attempted without a problem.Good(none)(none)
TrendSteady (falling over 24 hours)Low - River is low but can still be floated. Some riffles are okay but most come with significant dragging and might need a portage. Float lengths should be reduced to accommodate low flow, dragging, and portages.Low(none)(none)
USGSExternal icon USGS Site (External icon Duck Duck Go Maps)Poor - River is too low to float comfortably. Most or all riffles will drag or must be portaged and some obstacles (such as slick shelf rock) cause undue problems. Avoid the river at this stage for casual paddling trips.Poor(none)(none)

Trending Data

Plot Image

Trips for Platte River (Nebraska), North Bend (06796000)

DateStartEndDistanceConditionDischargeHeightFishingDetails

A total of 0 rows are displayed.

Condition Descriptions

Fishing Conditions

Fish Species

Notes

Classic Trip List

The classic River Trips application is still available for use. It is updated with the new system using a data retrofit. It is no longer maintained. The original River Trips application is no longer updated (as of 1 Dec 2016) but can be checked for errors or for the condition of the data before it was converted to the new system.

Gauge Data Table

ObservationHeightDischargeMaximum
Discharge
Minimum
Discharge
Mean
Discharge
P05P10P20P25P50
(Median)
P75P80P90P95
2026-05-10 07:15 2.81 1760 23300 (1984) 1360 (1955) 5620 2090 2290 3140 3450 4890 7040 7910 10500 11100
2026-05-10 06:15 2.81 1760 23300 (1984) 1360 (1955) 5620 2090 2290 3140 3450 4890 7040 7910 10500 11100
2026-05-10 05:15 2.81 1760 23300 (1984) 1360 (1955) 5620 2090 2290 3140 3450 4890 7040 7910 10500 11100
2026-05-10 04:15 2.80 1740 23300 (1984) 1360 (1955) 5620 2090 2290 3140 3450 4890 7040 7910 10500 11100
2026-05-10 03:15 2.80 1740 23300 (1984) 1360 (1955) 5620 2090 2290 3140 3450 4890 7040 7910 10500 11100
2026-05-10 02:15 2.80 1740 23300 (1984) 1360 (1955) 5620 2090 2290 3140 3450 4890 7040 7910 10500 11100
2026-05-10 01:15 2.81 1760 23300 (1984) 1360 (1955) 5620 2090 2290 3140 3450 4890 7040 7910 10500 11100
2026-05-10 00:15 2.81 1760 23300 (1984) 1360 (1955) 5620 2090 2290 3140 3450 4890 7040 7910 10500 11100
2026-05-09 23:15 2.83 1810 23300 (1984) 1360 (1955) 5620 2090 2290 3140 3450 4890 7040 7910 10500 11100
2026-05-09 22:15 2.85 1860 25500 (1984) 946 (1955) 5540 2150 2460 3000 3530 4580 6480 7560 9440 12500
2026-05-09 21:15 2.88 1930 25500 (1984) 946 (1955) 5540 2150 2460 3000 3530 4580 6480 7560 9440 12500
2026-05-09 20:15 2.90 1970 25500 (1984) 946 (1955) 5540 2150 2460 3000 3530 4580 6480 7560 9440 12500
2026-05-09 19:15 2.94 2070 25500 (1984) 946 (1955) 5540 2150 2460 3000 3530 4580 6480 7560 9440 12500
2026-05-09 18:15 2.97 2150 25500 (1984) 946 (1955) 5540 2150 2460 3000 3530 4580 6480 7560 9440 12500
2026-05-09 17:15 3.01 2250 25500 (1984) 946 (1955) 5540 2150 2460 3000 3530 4580 6480 7560 9440 12500
2026-05-09 16:15 3.03 2300 25500 (1984) 946 (1955) 5540 2150 2460 3000 3530 4580 6480 7560 9440 12500
2026-05-09 15:15 3.03 2300 25500 (1984) 946 (1955) 5540 2150 2460 3000 3530 4580 6480 7560 9440 12500
2026-05-09 14:15 3.04 2330 25500 (1984) 946 (1955) 5540 2150 2460 3000 3530 4580 6480 7560 9440 12500
2026-05-09 13:15 3.05 2350 25500 (1984) 946 (1955) 5540 2150 2460 3000 3530 4580 6480 7560 9440 12500
2026-05-09 12:15 3.05 2350 25500 (1984) 946 (1955) 5540 2150 2460 3000 3530 4580 6480 7560 9440 12500
2026-05-09 11:15 3.05 2350 25500 (1984) 946 (1955) 5540 2150 2460 3000 3530 4580 6480 7560 9440 12500
2026-05-09 10:15 3.05 2350 25500 (1984) 946 (1955) 5540 2150 2460 3000 3530 4580 6480 7560 9440 12500
2026-05-09 09:15 3.06 2380 25500 (1984) 946 (1955) 5540 2150 2460 3000 3530 4580 6480 7560 9440 12500
2026-05-09 08:15 3.06 2380 25500 (1984) 946 (1955) 5540 2150 2460 3000 3530 4580 6480 7560 9440 12500
2026-05-09 07:15 3.06 2380 25500 (1984) 946 (1955) 5540 2150 2460 3000 3530 4580 6480 7560 9440 12500
2026-05-09 06:15 3.06 2380 25500 (1984) 946 (1955) 5540 2150 2460 3000 3530 4580 6480 7560 9440 12500
2026-05-09 05:15 3.06 2380 25500 (1984) 946 (1955) 5540 2150 2460 3000 3530 4580 6480 7560 9440 12500
2026-05-09 04:15 3.06 2380 25500 (1984) 946 (1955) 5540 2150 2460 3000 3530 4580 6480 7560 9440 12500
2026-05-09 03:15 3.05 2350 25500 (1984) 946 (1955) 5540 2150 2460 3000 3530 4580 6480 7560 9440 12500
2026-05-09 02:15 3.06 2380 25500 (1984) 946 (1955) 5540 2150 2460 3000 3530 4580 6480 7560 9440 12500
2026-05-09 01:15 3.05 2350 25500 (1984) 946 (1955) 5540 2150 2460 3000 3530 4580 6480 7560 9440 12500
2026-05-09 00:15 3.06 2380 25500 (1984) 946 (1955) 5540 2150 2460 3000 3530 4580 6480 7560 9440 12500
2026-05-08 23:15 3.05 2350 25500 (1984) 946 (1955) 5540 2150 2460 3000 3530 4580 6480 7560 9440 12500
2026-05-08 22:15 3.05 2350 31700 (1984) 1690 (2004) 5680 2220 2470 3120 3520 4530 6750 7510 9840 13400
2026-05-08 21:15 3.05 2350 31700 (1984) 1690 (2004) 5680 2220 2470 3120 3520 4530 6750 7510 9840 13400
2026-05-08 20:15 3.06 2380 31700 (1984) 1690 (2004) 5680 2220 2470 3120 3520 4530 6750 7510 9840 13400
2026-05-08 19:15 3.06 2380 31700 (1984) 1690 (2004) 5680 2220 2470 3120 3520 4530 6750 7510 9840 13400
2026-05-08 18:15 3.05 2350 31700 (1984) 1690 (2004) 5680 2220 2470 3120 3520 4530 6750 7510 9840 13400
2026-05-08 17:15 3.06 2380 31700 (1984) 1690 (2004) 5680 2220 2470 3120 3520 4530 6750 7510 9840 13400
2026-05-08 16:15 3.06 2380 31700 (1984) 1690 (2004) 5680 2220 2470 3120 3520 4530 6750 7510 9840 13400
2026-05-08 15:15 3.06 2380 31700 (1984) 1690 (2004) 5680 2220 2470 3120 3520 4530 6750 7510 9840 13400
2026-05-08 14:15 3.06 2380 31700 (1984) 1690 (2004) 5680 2220 2470 3120 3520 4530 6750 7510 9840 13400
2026-05-08 13:15 3.07 2410 31700 (1984) 1690 (2004) 5680 2220 2470 3120 3520 4530 6750 7510 9840 13400
2026-05-08 12:15 3.07 2410 31700 (1984) 1690 (2004) 5680 2220 2470 3120 3520 4530 6750 7510 9840 13400
2026-05-08 11:15 3.07 2410 31700 (1984) 1690 (2004) 5680 2220 2470 3120 3520 4530 6750 7510 9840 13400
2026-05-08 10:15 3.07 2410 31700 (1984) 1690 (2004) 5680 2220 2470 3120 3520 4530 6750 7510 9840 13400
2026-05-08 09:15 3.07 2410 31700 (1984) 1690 (2004) 5680 2220 2470 3120 3520 4530 6750 7510 9840 13400
2026-05-08 08:15 3.07 2410 31700 (1984) 1690 (2004) 5680 2220 2470 3120 3520 4530 6750 7510 9840 13400
2026-05-08 07:15 3.07 2410 31700 (1984) 1690 (2004) 5680 2220 2470 3120 3520 4530 6750 7510 9840 13400
2026-05-08 06:15 3.06 2380 31700 (1984) 1690 (2004) 5680 2220 2470 3120 3520 4530 6750 7510 9840 13400
2026-05-08 05:15 3.06 2380 31700 (1984) 1690 (2004) 5680 2220 2470 3120 3520 4530 6750 7510 9840 13400
2026-05-08 04:15 3.06 2380 31700 (1984) 1690 (2004) 5680 2220 2470 3120 3520 4530 6750 7510 9840 13400
2026-05-08 03:15 3.06 2380 31700 (1984) 1690 (2004) 5680 2220 2470 3120 3520 4530 6750 7510 9840 13400
2026-05-08 02:15 3.05 2350 31700 (1984) 1690 (2004) 5680 2220 2470 3120 3520 4530 6750 7510 9840 13400
2026-05-08 01:15 3.05 2350 31700 (1984) 1690 (2004) 5680 2220 2470 3120 3520 4530 6750 7510 9840 13400
2026-05-08 00:15 3.05 2350 31700 (1984) 1690 (2004) 5680 2220 2470 3120 3520 4530 6750 7510 9840 13400
2026-05-07 23:15 3.04 2330 31700 (1984) 1690 (2004) 5680 2220 2470 3120 3520 4530 6750 7510 9840 13400
2026-05-07 22:15 3.04 2330 34500 (1984) 1470 (2004) 5990 2180 2460 3070 3290 4540 7010 7470 10800 15200
2026-05-07 21:15 3.03 2300 34500 (1984) 1470 (2004) 5990 2180 2460 3070 3290 4540 7010 7470 10800 15200
2026-05-07 20:15 3.03 2300 34500 (1984) 1470 (2004) 5990 2180 2460 3070 3290 4540 7010 7470 10800 15200
2026-05-07 19:15 3.03 2300 34500 (1984) 1470 (2004) 5990 2180 2460 3070 3290 4540 7010 7470 10800 15200
2026-05-07 18:15 3.04 2330 34500 (1984) 1470 (2004) 5990 2180 2460 3070 3290 4540 7010 7470 10800 15200
2026-05-07 17:15 3.04 2330 34500 (1984) 1470 (2004) 5990 2180 2460 3070 3290 4540 7010 7470 10800 15200
2026-05-07 16:15 3.04 2330 34500 (1984) 1470 (2004) 5990 2180 2460 3070 3290 4540 7010 7470 10800 15200
2026-05-07 15:15 3.05 2350 34500 (1984) 1470 (2004) 5990 2180 2460 3070 3290 4540 7010 7470 10800 15200
2026-05-07 14:15 3.05 2350 34500 (1984) 1470 (2004) 5990 2180 2460 3070 3290 4540 7010 7470 10800 15200
2026-05-07 13:15 3.05 2350 34500 (1984) 1470 (2004) 5990 2180 2460 3070 3290 4540 7010 7470 10800 15200
2026-05-07 12:15 3.05 2350 34500 (1984) 1470 (2004) 5990 2180 2460 3070 3290 4540 7010 7470 10800 15200
2026-05-07 11:15 3.05 2350 34500 (1984) 1470 (2004) 5990 2180 2460 3070 3290 4540 7010 7470 10800 15200
2026-05-07 10:15 3.05 2350 34500 (1984) 1470 (2004) 5990 2180 2460 3070 3290 4540 7010 7470 10800 15200
2026-05-07 09:15 3.04 2330 34500 (1984) 1470 (2004) 5990 2180 2460 3070 3290 4540 7010 7470 10800 15200
2026-05-07 08:15 3.04 2330 34500 (1984) 1470 (2004) 5990 2180 2460 3070 3290 4540 7010 7470 10800 15200
2026-05-07 07:15 3.04 2330 34500 (1984) 1470 (2004) 5990 2180 2460 3070 3290 4540 7010 7470 10800 15200
2026-05-07 06:15 3.03 2300 34500 (1984) 1470 (2004) 5990 2180 2460 3070 3290 4540 7010 7470 10800 15200
2026-05-07 05:15 3.03 2300 34500 (1984) 1470 (2004) 5990 2180 2460 3070 3290 4540 7010 7470 10800 15200
2026-05-07 04:15 3.03 2300 34500 (1984) 1470 (2004) 5990 2180 2460 3070 3290 4540 7010 7470 10800 15200
2026-05-07 03:15 3.02 2270 34500 (1984) 1470 (2004) 5990 2180 2460 3070 3290 4540 7010 7470 10800 15200
2026-05-07 02:15 3.03 2300 34500 (1984) 1470 (2004) 5990 2180 2460 3070 3290 4540 7010 7470 10800 15200
2026-05-07 01:15 3.02 2270 34500 (1984) 1470 (2004) 5990 2180 2460 3070 3290 4540 7010 7470 10800 15200
2026-05-07 00:15 3.02 2270 34500 (1984) 1470 (2004) 5990 2180 2460 3070 3290 4540 7010 7470 10800 15200
2026-05-06 23:15 3.02 2270 34500 (1984) 1470 (2004) 5990 2180 2460 3070 3290 4540 7010 7470 10800 15200
2026-05-06 22:15 3.02 2270 27200 (1984) 1450 (1955) 5770 2500 2600 2880 3430 4640 6880 7170 10600 13500
2026-05-06 21:15 3.01 2250 27200 (1984) 1450 (1955) 5770 2500 2600 2880 3430 4640 6880 7170 10600 13500
2026-05-06 20:15 3.02 2270 27200 (1984) 1450 (1955) 5770 2500 2600 2880 3430 4640 6880 7170 10600 13500
2026-05-06 19:15 3.02 2270 27200 (1984) 1450 (1955) 5770 2500 2600 2880 3430 4640 6880 7170 10600 13500
2026-05-06 18:15 3.03 2300 27200 (1984) 1450 (1955) 5770 2500 2600 2880 3430 4640 6880 7170 10600 13500
2026-05-06 17:15 3.03 2300 27200 (1984) 1450 (1955) 5770 2500 2600 2880 3430 4640 6880 7170 10600 13500
2026-05-06 16:15 3.03 2300 27200 (1984) 1450 (1955) 5770 2500 2600 2880 3430 4640 6880 7170 10600 13500
2026-05-06 15:15 3.03 2300 27200 (1984) 1450 (1955) 5770 2500 2600 2880 3430 4640 6880 7170 10600 13500
2026-05-06 14:15 3.01 2250 27200 (1984) 1450 (1955) 5770 2500 2600 2880 3430 4640 6880 7170 10600 13500
2026-05-06 13:15 3.01 2250 27200 (1984) 1450 (1955) 5770 2500 2600 2880 3430 4640 6880 7170 10600 13500
2026-05-06 12:15 3.00 2220 27200 (1984) 1450 (1955) 5770 2500 2600 2880 3430 4640 6880 7170 10600 13500
2026-05-06 11:15 2.98 2170 27200 (1984) 1450 (1955) 5770 2500 2600 2880 3430 4640 6880 7170 10600 13500
2026-05-06 10:15 2.95 2100 27200 (1984) 1450 (1955) 5770 2500 2600 2880 3430 4640 6880 7170 10600 13500
2026-05-06 09:15 2.94 2070 27200 (1984) 1450 (1955) 5770 2500 2600 2880 3430 4640 6880 7170 10600 13500
2026-05-06 08:15 2.91 2000 27200 (1984) 1450 (1955) 5770 2500 2600 2880 3430 4640 6880 7170 10600 13500
2026-05-06 07:15 2.90 1970 27200 (1984) 1450 (1955) 5770 2500 2600 2880 3430 4640 6880 7170 10600 13500
2026-05-06 06:15 2.88 1930 27200 (1984) 1450 (1955) 5770 2500 2600 2880 3430 4640 6880 7170 10600 13500
2026-05-06 05:15 2.87 1900 27200 (1984) 1450 (1955) 5770 2500 2600 2880 3430 4640 6880 7170 10600 13500
2026-05-06 04:15 2.87 1900 27200 (1984) 1450 (1955) 5770 2500 2600 2880 3430 4640 6880 7170 10600 13500
2026-05-06 03:15 2.86 1880 27200 (1984) 1450 (1955) 5770 2500 2600 2880 3430 4640 6880 7170 10600 13500
2026-05-06 02:15 2.86 1880 27200 (1984) 1450 (1955) 5770 2500 2600 2880 3430 4640 6880 7170 10600 13500
2026-05-06 01:15 2.85 1860 27200 (1984) 1450 (1955) 5770 2500 2600 2880 3430 4640 6880 7170 10600 13500
2026-05-06 00:15 2.84 1830 27200 (1984) 1450 (1955) 5770 2500 2600 2880 3430 4640 6880 7170 10600 13500
2026-05-05 23:15 2.85 1860 27200 (1984) 1450 (1955) 5770 2500 2600 2880 3430 4640 6880 7170 10600 13500
2026-05-05 22:15 2.87 1900 27100 (1984) 1560 (1955) 5480 2510 2620 3140 3490 4700 6270 6750 9160 12000
2026-05-05 21:15 2.88 1930 27100 (1984) 1560 (1955) 5480 2510 2620 3140 3490 4700 6270 6750 9160 12000
2026-05-05 20:15 2.90 1970 27100 (1984) 1560 (1955) 5480 2510 2620 3140 3490 4700 6270 6750 9160 12000
2026-05-05 19:15 2.92 2020 27100 (1984) 1560 (1955) 5480 2510 2620 3140 3490 4700 6270 6750 9160 12000
2026-05-05 18:15 2.94 2070 27100 (1984) 1560 (1955) 5480 2510 2620 3140 3490 4700 6270 6750 9160 12000
2026-05-05 17:15 2.96 2120 27100 (1984) 1560 (1955) 5480 2510 2620 3140 3490 4700 6270 6750 9160 12000
2026-05-05 16:15 2.98 2170 27100 (1984) 1560 (1955) 5480 2510 2620 3140 3490 4700 6270 6750 9160 12000
2026-05-05 15:15 3.01 2250 27100 (1984) 1560 (1955) 5480 2510 2620 3140 3490 4700 6270 6750 9160 12000
2026-05-05 14:15 3.04 2330 27100 (1984) 1560 (1955) 5480 2510 2620 3140 3490 4700 6270 6750 9160 12000
2026-05-05 13:15 3.05 2350 27100 (1984) 1560 (1955) 5480 2510 2620 3140 3490 4700 6270 6750 9160 12000
2026-05-05 12:15 3.07 2410 27100 (1984) 1560 (1955) 5480 2510 2620 3140 3490 4700 6270 6750 9160 12000
2026-05-05 11:15 3.06 2380 27100 (1984) 1560 (1955) 5480 2510 2620 3140 3490 4700 6270 6750 9160 12000
2026-05-05 10:15 3.07 2410 27100 (1984) 1560 (1955) 5480 2510 2620 3140 3490 4700 6270 6750 9160 12000
2026-05-05 09:15 3.08 2430 27100 (1984) 1560 (1955) 5480 2510 2620 3140 3490 4700 6270 6750 9160 12000
2026-05-05 08:15 3.08 2430 27100 (1984) 1560 (1955) 5480 2510 2620 3140 3490 4700 6270 6750 9160 12000
2026-05-05 07:15 3.06 2380 27100 (1984) 1560 (1955) 5480 2510 2620 3140 3490 4700 6270 6750 9160 12000
2026-05-05 06:15 3.05 2350 27100 (1984) 1560 (1955) 5480 2510 2620 3140 3490 4700 6270 6750 9160 12000
2026-05-05 05:15 3.03 2300 27100 (1984) 1560 (1955) 5480 2510 2620 3140 3490 4700 6270 6750 9160 12000
2026-05-05 04:15 2.98 2170 27100 (1984) 1560 (1955) 5480 2510 2620 3140 3490 4700 6270 6750 9160 12000
2026-05-05 03:15 2.94 2070 27100 (1984) 1560 (1955) 5480 2510 2620 3140 3490 4700 6270 6750 9160 12000
2026-05-05 02:15 2.89 1950 27100 (1984) 1560 (1955) 5480 2510 2620 3140 3490 4700 6270 6750 9160 12000
2026-05-05 01:15 2.86 1880 27100 (1984) 1560 (1955) 5480 2510 2620 3140 3490 4700 6270 6750 9160 12000
2026-05-05 00:15 2.84 1830 27100 (1984) 1560 (1955) 5480 2510 2620 3140 3490 4700 6270 6750 9160 12000
2026-05-04 23:15 2.82 1790 27100 (1984) 1560 (1955) 5480 2510 2620 3140 3490 4700 6270 6750 9160 12000
2026-05-04 22:15 2.81 1760 28400 (1984) 1530 (1955) 5420 2380 2750 3090 3460 4640 6340 6640 8140 9780
2026-05-04 21:15 2.82 1790 28400 (1984) 1530 (1955) 5420 2380 2750 3090 3460 4640 6340 6640 8140 9780
2026-05-04 20:15 2.85 1860 28400 (1984) 1530 (1955) 5420 2380 2750 3090 3460 4640 6340 6640 8140 9780
2026-05-04 19:15 2.87 1900 28400 (1984) 1530 (1955) 5420 2380 2750 3090 3460 4640 6340 6640 8140 9780
2026-05-04 18:15 2.90 1970 28400 (1984) 1530 (1955) 5420 2380 2750 3090 3460 4640 6340 6640 8140 9780
2026-05-04 17:15 2.93 2050 28400 (1984) 1530 (1955) 5420 2380 2750 3090 3460 4640 6340 6640 8140 9780
2026-05-04 16:15 2.94 2070 28400 (1984) 1530 (1955) 5420 2380 2750 3090 3460 4640 6340 6640 8140 9780
2026-05-04 15:15 2.96 2120 28400 (1984) 1530 (1955) 5420 2380 2750 3090 3460 4640 6340 6640 8140 9780
2026-05-04 14:15 2.96 2120 28400 (1984) 1530 (1955) 5420 2380 2750 3090 3460 4640 6340 6640 8140 9780
2026-05-04 13:15 2.94 2070 28400 (1984) 1530 (1955) 5420 2380 2750 3090 3460 4640 6340 6640 8140 9780
2026-05-04 12:15 2.93 2050 28400 (1984) 1530 (1955) 5420 2380 2750 3090 3460 4640 6340 6640 8140 9780
2026-05-04 11:15 2.91 2000 28400 (1984) 1530 (1955) 5420 2380 2750 3090 3460 4640 6340 6640 8140 9780
2026-05-04 10:15 2.90 1970 28400 (1984) 1530 (1955) 5420 2380 2750 3090 3460 4640 6340 6640 8140 9780
2026-05-04 09:15 2.90 1970 28400 (1984) 1530 (1955) 5420 2380 2750 3090 3460 4640 6340 6640 8140 9780
2026-05-04 08:15 2.90 1970 28400 (1984) 1530 (1955) 5420 2380 2750 3090 3460 4640 6340 6640 8140 9780
2026-05-04 07:15 2.93 2050 28400 (1984) 1530 (1955) 5420 2380 2750 3090 3460 4640 6340 6640 8140 9780
2026-05-04 06:15 2.95 2100 28400 (1984) 1530 (1955) 5420 2380 2750 3090 3460 4640 6340 6640 8140 9780
2026-05-04 05:15 2.97 2150 28400 (1984) 1530 (1955) 5420 2380 2750 3090 3460 4640 6340 6640 8140 9780
2026-05-04 04:15 2.99 2200 28400 (1984) 1530 (1955) 5420 2380 2750 3090 3460 4640 6340 6640 8140 9780
2026-05-04 03:15 2.99 2200 28400 (1984) 1530 (1955) 5420 2380 2750 3090 3460 4640 6340 6640 8140 9780
2026-05-04 02:15 3.00 2220 28400 (1984) 1530 (1955) 5420 2380 2750 3090 3460 4640 6340 6640 8140 9780
2026-05-04 01:15 2.99 2200 28400 (1984) 1530 (1955) 5420 2380 2750 3090 3460 4640 6340 6640 8140 9780
2026-05-04 00:15 3.00 2220 28400 (1984) 1530 (1955) 5420 2380 2750 3090 3460 4640 6340 6640 8140 9780
2026-05-03 23:15 3.00 2220 28400 (1984) 1530 (1955) 5420 2380 2750 3090 3460 4640 6340 6640 8140 9780
2026-05-03 22:15 3.00 2220 26700 (1984) 1660 (1955) 5430 2420 2730 3040 3440 4860 6410 6720 8000 9700
2026-05-03 21:15 3.00 2220 26700 (1984) 1660 (1955) 5430 2420 2730 3040 3440 4860 6410 6720 8000 9700
2026-05-03 20:15 3.00 2220 26700 (1984) 1660 (1955) 5430 2420 2730 3040 3440 4860 6410 6720 8000 9700
2026-05-03 19:15 2.99 2200 26700 (1984) 1660 (1955) 5430 2420 2730 3040 3440 4860 6410 6720 8000 9700
2026-05-03 18:15 3.00 2220 26700 (1984) 1660 (1955) 5430 2420 2730 3040 3440 4860 6410 6720 8000 9700
2026-05-03 17:15 2.99 2200 26700 (1984) 1660 (1955) 5430 2420 2730 3040 3440 4860 6410 6720 8000 9700
2026-05-03 16:15 3.01 2250 26700 (1984) 1660 (1955) 5430 2420 2730 3040 3440 4860 6410 6720 8000 9700
2026-05-03 15:15 3.00 2220 26700 (1984) 1660 (1955) 5430 2420 2730 3040 3440 4860 6410 6720 8000 9700
2026-05-03 14:15 3.01 2250 26700 (1984) 1660 (1955) 5430 2420 2730 3040 3440 4860 6410 6720 8000 9700
2026-05-03 13:15 3.00 2220 26700 (1984) 1660 (1955) 5430 2420 2730 3040 3440 4860 6410 6720 8000 9700
2026-05-03 12:15 2.99 2200 26700 (1984) 1660 (1955) 5430 2420 2730 3040 3440 4860 6410 6720 8000 9700
2026-05-03 11:15 2.99 2200 26700 (1984) 1660 (1955) 5430 2420 2730 3040 3440 4860 6410 6720 8000 9700
2026-05-03 10:15 2.99 2200 26700 (1984) 1660 (1955) 5430 2420 2730 3040 3440 4860 6410 6720 8000 9700
2026-05-03 09:15 3.00 2220 26700 (1984) 1660 (1955) 5430 2420 2730 3040 3440 4860 6410 6720 8000 9700
2026-05-03 08:15 3.00 2220 26700 (1984) 1660 (1955) 5430 2420 2730 3040 3440 4860 6410 6720 8000 9700
2026-05-03 07:15 3.00 2220 26700 (1984) 1660 (1955) 5430 2420 2730 3040 3440 4860 6410 6720 8000 9700
2026-05-03 06:15 2.99 2200 26700 (1984) 1660 (1955) 5430 2420 2730 3040 3440 4860 6410 6720 8000 9700
2026-05-03 05:15 2.99 2200 26700 (1984) 1660 (1955) 5430 2420 2730 3040 3440 4860 6410 6720 8000 9700
2026-05-03 04:15 2.97 2150 26700 (1984) 1660 (1955) 5430 2420 2730 3040 3440 4860 6410 6720 8000 9700
2026-05-03 03:15 2.95 2100 26700 (1984) 1660 (1955) 5430 2420 2730 3040 3440 4860 6410 6720 8000 9700
2026-05-03 02:15 2.95 2100 26700 (1984) 1660 (1955) 5430 2420 2730 3040 3440 4860 6410 6720 8000 9700
2026-05-03 01:15 2.96 2120 26700 (1984) 1660 (1955) 5430 2420 2730 3040 3440 4860 6410 6720 8000 9700
2026-05-03 00:15 2.98 2170 26700 (1984) 1660 (1955) 5430 2420 2730 3040 3440 4860 6410 6720 8000 9700
2026-05-02 23:15 3.00 2220 26700 (1984) 1660 (1955) 5430 2420 2730 3040 3440 4860 6410 6720 8000 9700

A total of 177 rows are displayed for years 1949 through 2025.